createdAt,value
2019-05-11T00:00:41.999Z,10.43
2019-05-11T00:03:09.348Z,10.47
2019-05-11T00:05:36.550Z,10.97
2019-05-11T00:08:04.325Z,11.10
2019-05-11T00:10:31.494Z,11.67
2019-05-11T00:13:02.410Z,12.13
2019-05-11T00:15:30.060Z,13.07
2019-05-11T00:17:59.614Z,10.60
2019-05-11T00:20:28.541Z,11.07
2019-05-11T00:22:56.443Z,11.57
2019-05-11T00:25:25.220Z,10.40
2019-05-11T00:27:52.601Z,11.13
2019-05-11T00:30:21.576Z,11.10
2019-05-11T00:35:26.863Z,10.87
2019-05-11T00:37:54.145Z,10.47
2019-05-11T00:40:25.581Z,12.67
2019-05-11T00:42:52.656Z,12.60
2019-05-11T00:45:19.865Z,11.60
2019-05-11T00:47:47.365Z,13.83
2019-05-11T00:50:14.637Z,12.47
2019-05-11T00:52:42.788Z,12.80
2019-05-11T00:55:09.997Z,13.47
2019-05-11T00:57:36.927Z,12.67
2019-05-11T01:00:08.574Z,12.67
2019-05-11T01:02:36.142Z,13.20
2019-05-11T01:05:06.144Z,13.87
2019-05-11T01:07:33.452Z,10.37
2019-05-11T01:10:00.857Z,11.50
2019-05-11T01:12:30.379Z,13.20
2019-05-11T01:14:58.616Z,13.53
2019-05-11T01:17:29.579Z,12.63
2019-05-11T01:19:56.831Z,16.60
2019-05-11T01:22:24.289Z,14.03
2019-05-11T01:24:52.912Z,13.77
2019-05-11T01:27:20.511Z,14.67
2019-05-11T01:29:52.436Z,13.47
2019-05-11T01:32:19.437Z,14.53
2019-05-11T01:34:57.687Z,12.33
2019-05-11T01:37:24.619Z,14.70
2019-05-11T01:39:53.235Z,11.40
2019-05-11T01:42:20.495Z,10.30
2019-05-11T01:44:51.478Z,10.80
2019-05-11T01:47:18.639Z,9.77
2019-05-11T01:49:45.753Z,9.43
2019-05-11T01:52:13.792Z,10.77
2019-05-11T01:54:58.358Z,11.50
2019-05-11T01:57:25.649Z,11.60
2019-05-11T01:59:53.651Z,12.27
2019-05-11T02:02:21.006Z,12.90
2019-05-11T02:04:53.159Z,12.80
2019-05-11T02:07:20.216Z,13.20
2019-05-11T02:09:47.158Z,11.40
2019-05-11T02:12:15.006Z,11.67
2019-05-11T02:14:42.271Z,12.00
2019-05-11T02:17:13.379Z,12.50
2019-05-11T02:19:40.352Z,12.73
2019-05-11T02:22:07.316Z,12.60
2019-05-11T02:24:35.889Z,13.37
2019-05-11T02:27:03.120Z,13.40
2019-05-11T02:29:30.256Z,12.43
2019-05-11T02:31:58.780Z,17.57
2019-05-11T02:34:25.714Z,13.73
2019-05-11T02:36:56.760Z,11.43
2019-05-11T02:39:24.696Z,11.27
2019-05-11T02:41:52.164Z,12.87
2019-05-11T02:44:25.942Z,12.60
2019-05-11T02:46:56.104Z,12.30
2019-05-11T02:49:27.705Z,12.40
2019-05-11T02:51:58.023Z,13.07
2019-05-11T02:54:26.411Z,14.20
2019-05-11T02:56:53.939Z,12.87
2019-05-11T02:59:29.781Z,13.50
2019-05-11T03:01:58.696Z,12.27
2019-05-11T03:04:27.665Z,14.87
2019-05-11T03:06:55.858Z,15.73
2019-05-11T03:09:23.598Z,16.37
2019-05-11T03:11:55.644Z,15.67
2019-05-11T03:14:22.805Z,15.93
2019-05-11T03:17:08.629Z,16.83
2019-05-11T03:19:35.644Z,15.57
2019-05-11T03:22:03.413Z,16.37
2019-05-11T03:24:30.348Z,16.53
2019-05-11T03:27:00.811Z,16.63
2019-05-11T03:29:28.049Z,15.83
2019-05-11T03:31:55.363Z,16.10
2019-05-11T03:34:23.866Z,17.13
2019-05-11T03:36:51.133Z,18.43
2019-05-11T03:39:21.471Z,16.97
2019-05-11T03:41:49.080Z,16.37
2019-05-11T03:44:16.225Z,14.40
2019-05-11T03:46:45.138Z,13.63
2019-05-11T03:49:12.419Z,14.30
2019-05-11T03:51:43.313Z,13.77
2019-05-11T03:54:10.356Z,13.30
2019-05-11T03:56:37.650Z,12.00
2019-05-11T03:59:05.775Z,13.37
2019-05-11T04:01:32.912Z,12.30
2019-05-11T04:04:06.695Z,11.87
2019-05-11T04:06:34.074Z,13.10
2019-05-11T04:09:02.232Z,12.30
2019-05-11T04:11:31.127Z,12.30
2019-05-11T04:13:58.285Z,11.30
2019-05-11T04:16:28.573Z,11.23
2019-05-11T04:18:55.641Z,10.67
2019-05-11T04:21:27.602Z,10.20
2019-05-11T04:23:55.051Z,10.00
2019-05-11T04:26:24.265Z,10.90
2019-05-11T04:28:52.451Z,11.13
2019-05-11T04:31:19.812Z,10.60
2019-05-11T04:33:49.100Z,9.20
2019-05-11T04:36:16.616Z,9.30
2019-05-11T04:38:46.773Z,9.50
2019-05-11T04:41:14.729Z,8.77
2019-05-11T04:43:41.969Z,9.67
2019-05-11T04:46:11.695Z,9.37
2019-05-11T04:48:40.010Z,9.63
2019-05-11T04:51:10.891Z,9.40
2019-05-11T04:53:38.459Z,9.30
2019-05-11T04:56:08.191Z,10.00
2019-05-11T04:58:35.347Z,9.63
2019-05-11T05:01:02.946Z,10.23
2019-05-11T05:03:40.778Z,10.37
2019-05-11T05:06:20.837Z,10.93
2019-05-11T05:08:32.134Z,11.87
2019-05-11T05:11:00.795Z,11.13
2019-05-11T05:13:32.988Z,10.60
2019-05-11T05:16:00.153Z,11.60
2019-05-11T05:18:27.495Z,10.93
2019-05-11T05:20:55.136Z,11.33
2019-05-11T05:23:42.255Z,11.17
2019-05-11T05:26:15.108Z,15.30
2019-05-11T05:28:45.601Z,12.17
2019-05-11T05:31:17.117Z,13.30
2019-05-11T05:33:44.281Z,13.53
2019-05-11T05:36:16.302Z,13.50
2019-05-11T05:38:43.528Z,13.10
2019-05-11T05:41:13.100Z,12.87
2019-05-11T05:43:40.270Z,13.83
2019-05-11T05:46:18.493Z,14.20
2019-05-11T05:48:45.446Z,14.57
2019-05-11T05:51:16.451Z,13.83
2019-05-11T05:53:43.641Z,14.97
2019-05-11T05:56:11.305Z,17.07
2019-05-11T05:58:38.901Z,16.17
2019-05-11T06:01:09.874Z,16.10
2019-05-11T06:03:35.361Z,18.63
2019-05-11T06:06:04.334Z,19.37
2019-05-11T06:08:31.717Z,20.27
2019-05-11T06:10:59.012Z,20.00
2019-05-11T06:13:43.895Z,19.27
2019-05-11T06:15:59.412Z,19.80
2019-05-11T06:18:28.829Z,20.37
2019-05-11T06:20:56.038Z,22.73
2019-05-11T06:23:27.803Z,19.00
2019-05-11T06:25:55.433Z,21.80
2019-05-11T06:28:25.604Z,22.30
2019-05-11T06:30:53.239Z,21.20
2019-05-11T06:33:20.724Z,22.50
2019-05-11T06:35:49.238Z,22.27
2019-05-11T06:38:16.662Z,23.00
2019-05-11T06:40:43.943Z,22.47
2019-05-11T06:43:11.948Z,24.30
2019-05-11T06:45:39.560Z,27.40
2019-05-11T06:48:11.579Z,27.77
2019-05-11T06:50:40.569Z,24.67
2019-05-11T06:53:11.562Z,21.47
2019-05-11T06:55:38.824Z,24.97
2019-05-11T06:58:06.050Z,26.33
2019-05-11T07:00:33.841Z,23.70
2019-05-11T07:03:00.755Z,25.13
2019-05-11T07:05:34.346Z,23.93
2019-05-11T07:08:01.365Z,25.87
2019-05-11T07:10:32.354Z,29.63
2019-05-11T07:13:00.607Z,26.97
2019-05-11T07:15:27.805Z,24.80
2019-05-11T07:17:56.006Z,25.27
2019-05-11T07:20:24.658Z,24.30
2019-05-11T07:22:57.706Z,27.37
2019-05-11T07:25:25.275Z,26.20
2019-05-11T07:27:54.927Z,22.33
2019-05-11T07:30:22.493Z,25.43
2019-05-11T07:32:49.392Z,23.63
2019-05-11T07:35:18.752Z,18.33
2019-05-11T07:37:47.929Z,13.20
2019-05-11T07:40:18.863Z,12.77
2019-05-11T07:42:48.565Z,9.67
2019-05-11T07:45:18.188Z,9.47
2019-05-11T07:47:48.329Z,6.80
2019-05-11T07:50:18.277Z,5.60
2019-05-11T07:52:48.291Z,4.60
2019-05-11T07:55:29.401Z,3.77
2019-05-11T07:58:00.255Z,3.40
2019-05-11T08:00:28.551Z,4.60
2019-05-11T08:03:00.569Z,2.67
2019-05-11T08:05:28.593Z,3.00
2019-05-11T08:07:59.653Z,2.10
2019-05-11T08:10:28.122Z,2.30
2019-05-11T08:12:59.657Z,2.00
2019-05-11T08:15:28.345Z,2.10
2019-05-11T08:17:57.808Z,6.03
2019-05-11T08:20:28.257Z,3.57
2019-05-11T08:22:55.817Z,3.10
2019-05-11T08:25:25.828Z,3.07
2019-05-11T08:27:53.381Z,3.23
2019-05-11T08:30:27.828Z,2.00
2019-05-11T08:32:55.272Z,2.50
2019-05-11T08:35:27.779Z,2.07
2019-05-11T08:37:54.256Z,2.30
2019-05-11T08:40:28.907Z,2.90
2019-05-11T08:42:58.308Z,2.30
2019-05-11T08:45:27.952Z,3.03
2019-05-11T08:47:57.978Z,2.20
2019-05-11T08:50:28.134Z,2.63
2019-05-11T08:52:57.908Z,3.13
2019-05-11T08:55:28.945Z,12.20
2019-05-11T08:57:58.511Z,4.53
2019-05-11T09:00:28.658Z,1.77
2019-05-11T09:02:58.217Z,1.50
2019-05-11T09:05:28.294Z,1.77
2019-05-11T09:07:57.773Z,1.73
2019-05-11T09:10:29.854Z,1.80
2019-05-11T09:12:59.039Z,1.57
2019-05-11T09:15:36.842Z,2.17
2019-05-11T09:18:00.828Z,1.60
2019-05-11T09:20:30.511Z,1.70
2019-05-11T09:22:58.955Z,1.60
2019-05-11T09:25:33.971Z,2.33
2019-05-11T09:28:10.008Z,2.13
2019-05-11T09:30:48.471Z,2.50
2019-05-11T09:33:20.666Z,2.90
2019-05-11T09:35:53.492Z,2.80
2019-05-11T09:38:20.509Z,2.40
2019-05-11T09:40:53.067Z,3.47
2019-05-11T09:43:20.295Z,3.00
2019-05-11T09:45:58.267Z,2.60
2019-05-11T09:48:25.496Z,2.40
2019-05-11T09:50:53.689Z,3.13
2019-05-11T09:53:21.169Z,2.03
2019-05-11T09:55:58.695Z,4.90
2019-05-11T09:58:28.071Z,1.70
2019-05-11T10:00:58.445Z,2.03
2019-05-11T10:03:27.984Z,3.00
2019-05-11T10:05:58.010Z,3.03
2019-05-11T10:08:26.052Z,2.00
2019-05-11T10:10:57.906Z,2.47
2019-05-11T10:13:24.986Z,2.60
2019-05-11T10:16:04.446Z,1.60
2019-05-11T10:18:24.423Z,1.50
2019-05-11T10:20:52.097Z,1.87
2019-05-11T10:23:20.421Z,1.73
2019-05-11T10:25:48.518Z,1.30
2019-05-11T10:28:17.923Z,1.40
2019-05-11T10:30:48.869Z,2.07
2019-05-11T10:33:16.074Z,1.53
2019-05-11T10:35:48.325Z,1.43
2019-05-11T10:38:15.376Z,1.60
2019-05-11T10:40:42.470Z,1.47
2019-05-11T10:43:11.035Z,2.10
2019-05-11T10:45:38.065Z,3.07
2019-05-11T10:48:10.660Z,1.93
2019-05-11T10:50:40.120Z,2.00
2019-05-11T10:53:09.091Z,2.50
2019-05-11T10:55:38.643Z,2.60
2019-05-11T10:58:09.826Z,35.10
2019-05-11T11:00:38.783Z,29.83
2019-05-11T11:03:10.592Z,3.60
2019-05-11T11:05:38.582Z,3.63
2019-05-11T11:08:08.096Z,3.90
2019-05-11T11:10:37.922Z,5.50
2019-05-11T11:13:05.272Z,5.40
2019-05-11T11:15:33.898Z,4.80
2019-05-11T11:18:01.155Z,4.20
2019-05-11T11:20:33.440Z,4.50
2019-05-11T11:23:00.910Z,4.40
2019-05-11T11:25:34.074Z,3.97
2019-05-11T11:28:01.451Z,3.60
2019-05-11T11:30:30.027Z,3.93
2019-05-11T11:32:58.983Z,5.23
2019-05-11T11:35:27.912Z,4.30
2019-05-11T11:37:58.460Z,5.07
2019-05-11T11:40:28.180Z,5.77
2019-05-11T11:42:58.114Z,3.83
2019-05-11T11:45:26.022Z,3.03
2019-05-11T11:47:58.116Z,3.83
2019-05-11T11:50:28.186Z,3.60
2019-05-11T11:52:58.005Z,2.53
2019-05-11T11:55:25.382Z,4.87
2019-05-11T11:57:58.922Z,2.40
2019-05-11T12:00:40.322Z,2.77
2019-05-11T12:03:08.204Z,3.40
2019-05-11T12:05:41.379Z,2.37
2019-05-11T12:08:08.813Z,55.60
2019-05-11T12:10:40.761Z,3.93
2019-05-11T12:13:08.759Z,3.13
2019-05-11T12:15:41.893Z,2.50
2019-05-11T12:18:09.068Z,2.43
2019-05-11T12:20:41.149Z,2.20
2019-05-11T12:23:09.149Z,3.50
2019-05-11T12:25:40.852Z,2.30
2019-05-11T12:28:08.819Z,2.10
2019-05-11T12:30:42.047Z,2.90
2019-05-11T12:33:10.872Z,2.53
2019-05-11T12:35:43.234Z,2.70
2019-05-11T12:38:11.874Z,3.37
2019-05-11T12:40:47.744Z,2.30
2019-05-11T12:43:18.567Z,1.80
2019-05-11T12:45:48.187Z,2.47
2019-05-11T12:48:18.117Z,1.90
2019-05-11T12:50:48.449Z,2.47
2019-05-11T12:53:23.437Z,1.70
2019-05-11T12:55:51.824Z,2.30
2019-05-11T12:58:28.131Z,2.67
2019-05-11T13:00:58.445Z,2.20
2019-05-11T13:03:30.101Z,2.37
2019-05-11T13:05:58.528Z,2.00
2019-05-11T13:08:29.415Z,3.80
2019-05-11T13:10:58.452Z,3.30
2019-05-11T13:13:29.207Z,6.97
2019-05-11T13:16:03.543Z,18.70
2019-05-11T13:27:00.323Z,2.90
2019-05-11T13:29:37.899Z,2.60
2019-05-11T13:32:11.525Z,2.73
2019-05-11T13:37:38.458Z,2.73
2019-05-11T13:40:09.531Z,3.30
2019-05-11T13:42:38.779Z,4.37
2019-05-11T13:45:10.806Z,1.80
2019-05-11T13:47:54.404Z,2.90
2019-05-11T13:50:21.719Z,6.07
2019-05-11T13:52:59.088Z,6.40
2019-05-11T13:55:31.365Z,3.60
2019-05-11T13:58:04.224Z,6.13
2019-05-11T14:00:34.215Z,2.43
2019-05-11T14:03:04.581Z,5.33
2019-05-11T14:05:37.904Z,2.10
2019-05-11T14:08:07.911Z,2.43
2019-05-11T14:10:38.386Z,3.17
2019-05-11T14:13:05.713Z,3.20
2019-05-11T14:15:33.951Z,2.17
2019-05-11T14:18:07.788Z,3.33
2019-05-11T14:20:39.527Z,44.93
2019-05-11T14:23:07.836Z,2.23
2019-05-11T14:26:01.163Z,2.70
2019-05-11T14:28:29.664Z,2.43
2019-05-11T14:30:59.386Z,2.97
2019-05-11T14:33:28.225Z,2.60
2019-05-11T14:35:59.068Z,2.63
2019-05-11T14:38:28.918Z,2.93
2019-05-11T14:40:59.763Z,2.57
2019-05-11T14:43:27.752Z,2.50
2019-05-11T14:46:02.351Z,3.07
2019-05-11T14:48:30.376Z,2.77
2019-05-11T14:51:01.326Z,2.60
2019-05-11T14:53:28.958Z,2.60
2019-05-11T14:56:01.222Z,2.40
2019-05-11T14:58:28.775Z,2.20
2019-05-11T15:01:02.444Z,2.90
2019-05-11T15:03:30.648Z,2.60
2019-05-11T15:06:01.294Z,2.43
2019-05-11T15:08:31.589Z,4.87
2019-05-11T15:11:02.857Z,3.20
2019-05-11T15:13:30.516Z,2.90
2019-05-11T15:16:03.173Z,3.47
2019-05-11T15:18:38.622Z,2.67
2019-05-11T15:21:04.671Z,2.10
2019-05-11T15:23:31.821Z,1.93
2019-05-11T15:26:02.544Z,4.03
2019-05-11T15:31:27.718Z,2.20
2019-05-11T15:33:57.610Z,2.13
2019-05-11T15:36:28.406Z,3.27
2019-05-11T15:38:58.205Z,2.13
2019-05-11T15:41:28.120Z,2.40
2019-05-11T15:43:57.854Z,2.20
2019-05-11T15:46:28.317Z,2.50
2019-05-11T15:49:02.618Z,2.40
2019-05-11T15:51:29.141Z,2.60
2019-05-11T15:53:58.684Z,2.40
2019-05-11T15:56:28.199Z,2.33
2019-05-11T15:58:57.485Z,2.93
2019-05-11T16:05:11.936Z,3.70
2019-05-11T16:07:39.532Z,2.40
2019-05-11T16:10:10.723Z,2.80
2019-05-11T16:12:39.070Z,3.20
2019-05-11T16:15:09.924Z,2.90
2019-05-11T16:17:43.973Z,4.90
2019-05-11T16:20:14.651Z,4.07
2019-05-11T16:22:42.631Z,2.50
2019-05-11T16:25:13.396Z,5.20
2019-05-11T16:27:40.608Z,3.83
2019-05-11T16:30:13.367Z,3.67
2019-05-11T16:32:40.986Z,5.10
2019-05-11T16:35:13.911Z,4.70
2019-05-11T16:37:41.700Z,3.60
2019-05-11T16:40:13.641Z,3.60
2019-05-11T16:42:41.573Z,3.73
2019-05-11T16:45:13.679Z,8.57
2019-05-11T16:47:40.727Z,3.97
2019-05-11T16:50:12.611Z,4.17
2019-05-11T16:55:23.908Z,4.10
2019-05-11T16:57:54.492Z,32.10
2019-05-11T17:00:21.910Z,47.70
2019-05-11T17:02:49.319Z,5.80
2019-05-11T17:05:26.569Z,4.13
2019-05-11T17:07:49.085Z,4.67
2019-05-11T17:10:18.087Z,4.70
2019-05-11T17:12:49.094Z,4.77
2019-05-11T17:15:18.907Z,5.87
2019-05-11T17:17:48.737Z,4.53
2019-05-11T17:20:19.102Z,4.50
2019-05-11T17:22:47.949Z,4.80
2019-05-11T17:25:19.474Z,5.73
2019-05-11T17:27:48.628Z,5.70
2019-05-11T17:30:19.818Z,5.10
2019-05-11T17:32:49.120Z,4.77
2019-05-11T17:35:20.583Z,6.40
2019-05-11T17:37:48.735Z,5.93
2019-05-11T17:40:23.376Z,5.07
2019-05-11T17:42:52.836Z,5.40
2019-05-11T17:45:22.329Z,5.10
2019-05-11T17:47:58.247Z,5.90
2019-05-11T17:50:28.237Z,4.67
2019-05-11T17:52:59.658Z,5.73
2019-05-11T17:55:28.620Z,6.30
2019-05-11T17:57:58.196Z,5.10
2019-05-11T18:00:25.321Z,5.87
2019-05-11T18:02:52.466Z,5.77
2019-05-11T18:05:22.681Z,6.77
2019-05-11T18:07:50.050Z,9.27
2019-05-11T18:10:18.300Z,6.43
2019-05-11T18:13:07.316Z,6.77
2019-05-11T18:15:34.655Z,6.77
2019-05-11T18:18:05.020Z,6.63
2019-05-11T18:20:34.241Z,6.77
2019-05-11T18:23:05.443Z,8.27
2019-05-11T18:25:35.827Z,8.40
2019-05-11T18:28:05.856Z,9.00
2019-05-11T18:30:33.747Z,8.73
2019-05-11T18:33:04.231Z,9.50
2019-05-11T18:35:32.569Z,9.27
2019-05-11T18:38:08.558Z,8.57
2019-05-11T18:40:38.221Z,8.87
2019-05-11T18:43:08.736Z,9.77
2019-05-11T18:45:38.155Z,8.97
2019-05-11T18:48:08.051Z,9.60
2019-05-11T18:50:35.547Z,10.43
2019-05-11T18:53:03.347Z,13.33
2019-05-11T18:55:32.467Z,11.80
2019-05-11T18:57:59.464Z,8.70
2019-05-11T19:00:29.371Z,8.57
2019-05-11T19:02:58.056Z,8.23
2019-05-11T19:05:29.843Z,8.73
2019-05-11T19:07:58.412Z,7.80
2019-05-11T19:10:29.043Z,8.20
2019-05-11T19:12:58.743Z,7.67
2019-05-11T19:15:29.159Z,8.53
2019-05-11T19:17:58.085Z,7.80
2019-05-11T19:20:25.571Z,8.07
2019-05-11T19:22:53.927Z,8.17
2019-05-11T19:25:22.997Z,8.27
2019-05-11T19:27:53.800Z,8.37
2019-05-11T19:30:22.130Z,8.37
2019-05-11T19:32:55.731Z,8.83
2019-05-11T19:35:24.179Z,8.33
2019-05-11T19:37:55.117Z,8.17
2019-05-11T19:40:24.288Z,7.90
2019-05-11T19:42:59.034Z,7.93
2019-05-11T19:45:26.027Z,7.93
2019-05-11T19:47:53.101Z,8.83
2019-05-11T19:50:21.155Z,8.60
2019-05-11T19:52:49.578Z,8.70
2019-05-11T19:55:17.954Z,10.60
2019-05-11T19:57:48.309Z,8.53
2019-05-11T20:00:15.556Z,8.53
2019-05-11T20:02:47.442Z,8.70
2019-05-11T20:05:15.215Z,8.70
2019-05-11T20:07:49.326Z,9.30
2019-05-11T20:10:18.698Z,8.00
2019-05-11T20:12:48.800Z,9.10
2019-05-11T20:15:19.363Z,9.53
2019-05-11T20:17:50.005Z,9.20
2019-05-11T20:20:18.424Z,9.20
2019-05-11T20:22:49.026Z,9.50
2019-05-11T20:25:18.501Z,8.67
2019-05-11T20:27:50.067Z,21.53
2019-05-11T20:30:18.478Z,92.90
2019-05-11T20:32:51.877Z,9.97
2019-05-11T20:35:19.061Z,8.90
2019-05-11T20:37:50.945Z,10.10
2019-05-11T20:40:18.551Z,8.77
2019-05-11T20:42:55.015Z,9.37
2019-05-11T20:45:22.343Z,9.87
2019-05-11T20:47:52.799Z,9.23
2019-05-11T20:50:19.770Z,10.33
2019-05-11T20:52:51.064Z,9.70
2019-05-11T20:55:37.776Z,9.83
2019-05-11T20:58:04.833Z,9.63
2019-05-11T21:00:33.676Z,9.47
2019-05-11T21:03:01.371Z,9.17
2019-05-11T21:05:30.785Z,9.43
2019-05-11T21:07:58.295Z,9.73
2019-05-11T21:10:27.888Z,9.60
2019-05-11T21:12:57.669Z,11.27
2019-05-11T21:15:25.016Z,10.50
2019-05-11T21:17:58.675Z,9.83
2019-05-11T21:20:25.796Z,9.70
2019-05-11T21:22:58.188Z,11.97
2019-05-11T21:25:25.369Z,11.83
2019-05-11T21:27:57.982Z,12.10
2019-05-11T21:30:25.755Z,12.90
2019-05-11T21:49:40.660Z,14.67
2019-05-11T21:52:08.130Z,15.53
2019-05-11T21:54:38.835Z,14.50
2019-05-11T21:57:08.270Z,16.20
2019-05-11T21:59:38.972Z,14.67
2019-05-11T22:02:08.210Z,16.10
2019-05-11T22:04:40.008Z,16.90
2019-05-11T22:07:08.046Z,16.40
2019-05-11T22:09:38.289Z,14.00
2019-05-11T22:12:07.902Z,17.63
2019-05-11T22:14:34.695Z,13.20
2019-05-11T22:17:02.761Z,14.07
2019-05-11T22:19:29.914Z,16.07
2019-05-11T22:21:58.327Z,15.03
2019-05-11T22:24:28.274Z,12.77
2019-05-11T22:26:57.450Z,13.73
2019-05-11T22:29:25.785Z,16.80
2019-05-11T22:31:52.770Z,12.97
2019-05-11T22:34:24.210Z,16.03
2019-05-11T22:36:52.673Z,14.07
2019-05-11T22:39:22.241Z,13.23
2019-05-11T22:41:50.106Z,13.80
2019-05-11T22:44:18.649Z,13.40
2019-05-11T22:46:47.886Z,13.07
2019-05-11T22:49:17.673Z,15.50
2019-05-11T22:51:47.308Z,13.60
2019-05-11T22:54:14.869Z,15.87
2019-05-11T22:56:48.032Z,12.97
2019-05-11T22:59:15.413Z,13.87
2019-05-11T23:01:45.046Z,14.40
2019-05-11T23:04:13.188Z,13.33
2019-05-11T23:06:40.857Z,15.03
2019-05-11T23:09:08.981Z,13.83
2019-05-11T23:11:37.867Z,14.90
2019-05-11T23:14:10.146Z,14.97
2019-05-11T23:16:51.341Z,16.57
2019-05-11T23:19:18.864Z,15.13
2019-05-11T23:21:48.211Z,15.83
2019-05-11T23:24:18.154Z,14.70
2019-05-11T23:26:49.891Z,13.77
2019-05-11T23:29:17.143Z,15.93
2019-05-11T23:34:18.937Z,15.93
2019-05-11T23:36:45.914Z,16.10
2019-05-11T23:39:15.253Z,16.07
2019-05-11T23:41:42.226Z,15.13
2019-05-11T23:44:13.084Z,17.20
2019-05-11T23:46:40.679Z,17.27
2019-05-11T23:49:08.812Z,15.73
2019-05-11T23:51:38.669Z,15.03
2019-05-11T23:54:08.002Z,17.57
2019-05-11T23:56:35.768Z,16.33
2019-05-11T23:59:02.988Z,17.97
